GMT,Max TemperatureF,Mean TemperatureF,Min TemperatureF,Max Dew PointF,MeanDew PointF,Min DewpointF,Max Humidity, Mean Humidity, Min Humidity, Max Sea Level PressureIn, Mean Sea Level PressureIn, Min Sea Level PressureIn, Max VisibilityMiles, Mean VisibilityMiles, Min VisibilityMiles, Max Wind SpeedMPH, Mean Wind SpeedMPH, Max Gust SpeedMPH,PrecipitationIn, CloudCover, Events, WindDirDegrees
2012-10-1,53,49,45,48,46,43,100,91,76,29.73,29.62,29.59,19,6,5,21,11,33,0.12,5,Rain,217
2012-10-2,52,48,44,46,45,45,100,92,76,29.62,29.45,29.39,9,6,5,16,10,28,0.31,5,Rain,216
2012-10-3,52,46,41,46,45,41,100,91,76,29.57,29.49,29.42,9,6,2,17,11,,0.20,5,Rain,254
2012-10-4,51,45,40,47,44,40,100,92,76,29.67,29.61,29.53,9,6,4,21,9,,0.24,5,Rain,208
2012-10-5,54,46,39,46,43,39,100,84,66,29.78,29.69,29.56,16,7,6,16,8,,0.12,3,Rain,273
2012-10-6,54,46,38,48,45,41,100,89,68,30.09,29.97,29.86,19,7,5,12,6,,0.00,4,Fog-Rain,304
2012-10-7,51,46,41,43,41,39,95,79,61,30.19,30.15,30.09,6,6,6,9,7,,0.00,7,,107
2012-10-8,53,48,42,45,43,42,100,84,58,30.07,30.00,29.98,16,7,6,13,10,,0.00,4,,58
2012-10-9,54,46,39,46,42,37,93,83,71,30.07,30.03,29.98,16,7,6,9,7,,0.00,4,,72
2012-10-10,52,44,37,52,45,37,100,99,92,30.01,29.83,29.70,3,1,0,12,8,,0.01,6,Fog-Rain,130
2012-10-11,51,48,44,54,44,37,100,84,62,29.70,29.63,29.56,19,6,2,20,14,,0.16,5,Rain,326
2012-10-12,50,44,37,43,40,36,93,83,61,29.72,29.67,29.65,19,7,5,9,7,,0.03,2,Rain,231
2012-10-13,51,44,38,42,40,37,100,81,62,29.71,29.68,29.65,19,7,6,12,8,,0.00,4,Rain,276
2012-10-14,52,46,40,48,45,39,100,92,76,29.69,29.65,29.62,9,6,0,16,11,,0.03,5,Fog-Rain,314
2012-10-15,48,44,41,45,42,39,100,93,81,29.70,29.48,29.30,19,6,2,13,4,,0.08,5,Rain,123
2012-10-16,51,46,40,43,41,39,100,86,62,29.49,29.43,29.22,16,6,2,11,7,,0.00,3,Rain,238
2012-10-17,48,44,41,48,45,42,100,97,93,29.31,29.05,29.00,12,5,0,14,11,23,0.24,7,Fog-Rain,55
2012-10-18,53,49,45,50,48,46,100,97,82,29.50,29.29,29.10,9,6,0,15,10,,0.28,7,Fog-Rain,12
2012-10-19,51,48,44,47,44,43,100,85,70,29.79,29.75,29.67,19,8,6,11,8,,0.00,4,,7
2012-10-20,55,48,42,48,45,43,100,88,67,29.91,29.84,29.80,19,5,0,12,6,,0.00,6,Fog,162
2012-10-21,55,50,45,50,47,46,100,90,75,30.07,30.02,29.95,6,4,0,14,11,,0.00,5,Fog,132
2012-10-22,52,46,42,49,47,43,100,95,88,30.24,30.16,30.12,12,4,0,12,9,,0.01,5,Fog,115
2012-10-23,55,52,49,52,50,48,100,93,84,30.38,30.33,30.27,16,5,3,9,6,,0.00,7,,67
2012-10-24,53,50,46,50,48,46,100,91,80,30.27,30.23,30.18,16,7,6,12,8,,0.00,8,,28
2012-10-25,51,48,44,46,43,39,100,82,64,30.19,30.12,30.09,19,7,6,15,11,28,0.00,5,,46
2012-10-26,43,40,35,40,31,28,93,71,46,30.21,30.17,30.15,19,7,6,16,10,,0.00,4,,30
2012-10-27,46,40,33,37,33,28,85,74,62,30.38,30.32,30.27,6,6,6,12,6,,0.00,5,Rain,292
2012-10-28,46,44,41,45,44,43,100,94,87,30.17,29.78,29.62,16,7,4,21,16,32,0.39,6,Rain,241
2012-10-29,48,44,39,46,42,39,100,91,76,29.89,29.84,29.71,19,7,4,14,7,23,0.00,5,Rain,350
2012-10-30,47,42,36,45,43,38,100,93,87,29.89,29.58,29.37,19,7,0,18,11,32,0.02,6,Fog-Rain,237
2012-10-31,45,41,37,45,38,36,100,91,71,29.11,28.87,28.82,19,7,3,13,6,,0.24,5,Rain,225